New Ranger — 9HWJ8 — position and weather

sailwx.info

Track history (hours):
 
Tides and Currents Weather Stations Pressure Air Temp Water Temp Dewpoint Dewpoint Depression Visibility Wind Speed Wind Dir Waves Ship Positions

New Ranger

Last reported at 2017-Sep-13 21:58 UTC. Time now 2017-Sep-20 23:36 UTC.
Position N 06°05' E 001°17'.

Length 127 m; draft 5.6 m.

Type: Ship. MMSI: 256520000.

Date/timePositionNaut miles runAvg speedWind from/ knotsBaromVisibWave heightAir tempDewpointWater temp
2017-Sep-13 21:58N 06°05' E 001°17'  
2017-Sep-10 03:04N 05°12' E 000°26'112.4
2017-Sep-10 03:00N 05°12' E 000°26'1212.6
2017-Sep-10 02:03N 05°05' E 000°16'2712.5
2017-Sep-09 23:53N 04°53' W 000°09'1412.5
2017-Sep-09 22:45N 04°46' W 000°21'712.8
2017-Sep-09 22:11N 04°42' W 000°27'211.8
2017-Sep-09 21:59N 04°41' W 000°29'5013.0
2017-Sep-09 18:06N 04°16' W 001°13'213.7
2017-Sep-09 17:58N 04°15' W 001°15'  
2017-Sep-05 07:05N 08°02' W 013°54'211.3
2017-Sep-05 06:56N 08°01' W 013°53'  
Track history (hours):
 
Tides and Currents Weather Stations Pressure Air Temp Water Temp Dewpoint Dewpoint Depression Visibility Wind Speed Wind Dir Waves Ship Positions

New Ranger

Last reported at 2017-Sep-13 21:58 UTC. Time now 2017-Sep-20 23:36 UTC.
Position N 06°05' E 001°17'.

Length 127 m; draft 5.6 m.

Type: Ship. MMSI: 256520000.

Date/timePositionNaut miles runAvg speedWind from/ knotsBaromVisibWave heightAir tempDewpointWater temp
2017-Sep-13 21:58N 06°05' E 001°17'  
2017-Sep-10 03:04N 05°12' E 000°26'112.4
2017-Sep-10 03:00N 05°12' E 000°26'1212.6
2017-Sep-10 02:03N 05°05' E 000°16'2712.5
2017-Sep-09 23:53N 04°53' W 000°09'1412.5
2017-Sep-09 22:45N 04°46' W 000°21'712.8
2017-Sep-09 22:11N 04°42' W 000°27'211.8
2017-Sep-09 21:59N 04°41' W 000°29'5013.0
2017-Sep-09 18:06N 04°16' W 001°13'213.7
2017-Sep-09 17:58N 04°15' W 001°15'  
2017-Sep-05 07:05N 08°02' W 013°54'211.3
2017-Sep-05 06:56N 08°01' W 013°53'  

Dump ship's entire track history